Time;durP1;ratioP1;P1;durP2;ratioP2;P2;SDS_P1;SDS_P2;PMS_P1;PMS_P2;Temp;Humidity;BMP_temperature;BMP_pressure;BME280_temperature;BME280_humidity;BME280_pressure;Samples;Min_cycle;Max_cycle;Signal;HPM_P1;HPM_P2
2022/08/05 00:00:33;;;;;;;13.65;10.85;;;;;;;17.15;100.00;100366.28;5077420;28;20032;-77
2022/08/05 00:02:58;;;;;;;13.05;11.18;;;;;;;17.23;100.00;100381.63;5070271;28;20382;-77
2022/08/05 00:05:24;;;;;;;15.25;10.88;;;;;;;17.18;100.00;100376.66;5061001;28;20033;-77
2022/08/05 00:07:49;;;;;;;22.27;11.88;;;;;;;16.92;100.00;100345.97;5059165;28;20109;-77
2022/08/05 00:10:14;;;;;;;14.05;10.02;;;;;;;17.16;100.00;100369.78;5078205;28;20102;-77
2022/08/05 00:12:40;;;;;;;18.77;11.60;;;;;;;17.12;100.00;100369.16;5071434;28;20103;-77
2022/08/05 00:15:06;;;;;;;14.43;12.45;;;;;;;16.88;100.00;100336.56;5059870;28;20032;-79
2022/08/05 00:17:31;;;;;;;20.15;11.30;;;;;;;17.02;100.00;100362.88;5056248;28;20430;-76
2022/08/05 00:19:57;;;;;;;15.13;11.95;;;;;;;17.03;100.00;100372.56;5059579;28;20089;-76
2022/08/05 00:22:22;;;;;;;15.43;11.63;;;;;;;17.01;100.00;100376.25;5066555;28;20064;-76
2022/08/05 00:24:47;;;;;;;12.52;11.20;;;;;;;16.98;100.00;100377.34;5064343;28;20040;-75
2022/08/05 00:27:13;;;;;;;12.52;10.55;;;;;;;16.69;100.00;100336.28;5070848;28;20028;-75
2022/08/05 00:29:38;;;;;;;13.40;11.82;;;;;;;16.85;100.00;100368.66;5091196;28;20483;-75
2022/08/05 00:32:05;;;;;;;17.40;11.68;;;;;;;16.90;100.00;100377.09;5085507;28;20020;-75
2022/08/05 00:34:31;;;;;;;16.20;12.07;;;;;;;16.81;100.00;100352.09;5080836;28;20032;-75
2022/08/05 00:36:56;;;;;;;13.70;11.38;;;;;;;17.00;100.00;100375.41;5088241;28;20028;-75
2022/08/05 00:39:22;;;;;;;17.20;11.70;;;;;;;16.94;100.00;100352.00;5090655;28;20555;-75
2022/08/05 00:41:48;;;;;;;13.90;10.00;;;;;;;17.04;100.00;100371.56;5073513;28;20024;-75
2022/08/05 00:44:13;;;;;;;12.25;10.13;;;;;;;16.96;100.00;100360.72;5078212;28;20030;-75
2022/08/05 00:46:39;;;;;;;19.65;12.13;;;;;;;17.01;100.00;100371.81;5086013;28;20588;-75
2022/08/05 00:49:04;;;;;;;19.08;12.52;;;;;;;16.98;100.00;100381.81;5078474;28;20452;-75
2022/08/05 00:51:30;;;;;;;16.02;11.68;;;;;;;16.92;100.00;100393.75;5054919;28;20064;-75
2022/08/05 00:53:55;;;;;;;16.02;11.45;;;;;;;16.92;100.00;100383.13;5055053;28;20025;-75
2022/08/05 00:56:21;;;;;;;20.15;10.40;;;;;;;16.89;100.00;100378.06;5075130;28;20021;-75
2022/08/05 00:58:47;;;;;;;11.82;9.05;;;;;;;16.96;100.00;100383.75;5075286;28;20028;-75
2022/08/05 01:01:14;;;;;;;12.82;10.68;;;;;;;16.65;100.00;100346.28;5071457;28;20100;-74
2022/08/05 01:03:40;;;;;;;13.90;11.48;;;;;;;16.95;100.00;100406.78;5063948;28;20024;-75
2022/08/05 01:06:06;;;;;;;13.85;11.20;;;;;;;16.88;100.00;100418.84;5059474;28;20029;-75
2022/08/05 01:08:32;;;;;;;13.35;10.40;;;;;;;16.83;100.00;100426.31;5054664;28;20038;-75
2022/08/05 01:11:32;;;;;;;15.68;11.40;;;;;;;16.95;100.00;100475.81;5088807;28;20033;-75
2022/08/05 01:14:09;;;;;;;18.98;10.85;;;;;;;17.03;100.00;100502.66;5051060;28;20048;-74
2022/08/05 01:16:45;;;;;;;18.00;10.45;;;;;;;16.80;100.00;100458.38;5071315;28;20042;-74
2022/08/05 01:19:23;;;;;;;15.07;12.43;;;;;;;16.90;100.00;100488.56;5057688;28;20033;-75
2022/08/05 01:22:16;;;;;;;16.05;12.40;;;;;;;16.92;100.00;100505.25;5071191;28;20070;-74
2022/08/05 01:25:19;;;;;;;24.55;14.50;;;;;;;16.84;100.00;100528.84;5077102;28;20065;-75
2022/08/05 01:27:54;;;;;;;15.10;11.30;;;;;;;16.81;100.00;100551.16;5071865;28;20028;-72
2022/08/05 01:30:20;;;;;;;17.48;11.02;;;;;;;16.84;100.00;100560.69;5087122;28;20432;-72
2022/08/05 01:32:47;;;;;;;28.33;15.40;;;;;;;16.85;100.00;100551.78;5073512;28;20025;-72
2022/08/05 01:35:15;;;;;;;19.50;15.38;;;;;;;16.81;100.00;100547.66;5082438;28;20040;-73
2022/08/05 01:37:47;;;;;;;24.55;16.25;;;;;;;16.78;100.00;100537.28;5058696;28;20086;-71
2022/08/05 01:40:14;;;;;;;18.65;14.95;;;;;;;16.72;100.00;100530.63;5092164;28;20051;-74
2022/08/05 01:42:41;;;;;;;21.67;17.80;;;;;;;16.72;100.00;100522.66;5069648;28;20032;-74
2022/08/05 01:45:07;;;;;;;20.67;16.27;;;;;;;16.75;100.00;100529.53;5073939;28;20036;-75
2022/08/05 01:47:34;;;;;;;23.98;15.95;;;;;;;16.65;100.00;100491.38;5061265;28;20029;-75
2022/08/05 01:50:02;;;;;;;21.38;16.55;;;;;;;16.83;100.00;100474.09;5068065;28;20024;-75
2022/08/05 01:52:28;;;;;;;16.58;13.77;;;;;;;16.86;100.00;100410.16;5049133;28;20025;-76
2022/08/05 01:55:01;;;;;;;18.58;14.32;;;;;;;16.93;100.00;100363.59;5063471;28;20029;-75
2022/08/05 01:57:37;;;;;;;20.55;15.48;;;;;;;16.86;100.00;100319.91;5052970;28;20037;-76
2022/08/05 02:00:04;;;;;;;24.75;15.20;;;;;;;16.93;100.00;100337.06;5081087;28;20536;-75
2022/08/05 02:02:30;;;;;;;18.45;16.23;;;;;;;16.86;100.00;100341.97;5086396;28;20028;-75
2022/08/05 02:05:02;;;;;;;14.43;12.60;;;;;;;16.83;100.00;100352.81;5058188;28;20538;-75
2022/08/05 02:07:30;;;;;;;18.45;13.73;;;;;;;16.89;100.00;100378.06;5075834;28;20040;-75
2022/08/05 02:09:55;;;;;;;35.10;17.55;;;;;;;16.89;100.00;100377.22;5058387;28;20044;-76
2022/08/05 02:12:30;;;;;;;20.33;17.98;;;;;;;16.89;100.00;100388.69;5073749;28;20471;-75
2022/08/05 02:15:19;;;;;;;21.20;16.20;;;;;;;16.83;100.00;100405.91;5073029;28;20028;-75
2022/08/05 02:17:50;;;;;;;20.85;16.35;;;;;;;16.81;100.00;100417.59;5057571;28;20590;-74
2022/08/05 02:20:27;;;;;;;22.05;18.58;;;;;;;16.67;100.00;100399.22;5081519;28;20467;-75
2022/08/05 02:23:09;;;;;;;21.05;16.45;;;;;;;16.73;100.00;100417.31;5063146;28;20041;-76
2022/08/05 02:25:36;;;;;;;22.23;17.38;;;;;;;16.57;100.00;100409.69;5060676;28;20024;-76
2022/08/05 02:28:02;;;;;;;22.60;19.05;;;;;;;16.62;100.00;100404.03;5054025;28;20020;-76
2022/08/05 02:30:32;;;;;;;23.48;18.38;;;;;;;16.68;100.00;100400.91;5058985;28;20037;-75
2022/08/05 02:32:57;;;;;;;22.02;16.92;;;;;;;16.77;100.00;100426.75;5069923;28;20540;-75
2022/08/05 02:35:25;;;;;;;23.52;20.85;;;;;;;16.75;100.00;100441.97;5078234;28;20103;-75
2022/08/05 02:37:53;;;;;;;26.58;19.52;;;;;;;16.64;100.00;100436.59;5071134;28;20036;-74
2022/08/05 02:40:19;;;;;;;19.48;17.17;;;;;;;16.68;100.00;100432.75;5063129;28;20755;-74
2022/08/05 02:42:47;;;;;;;27.08;18.70;;;;;;;16.65;100.00;100425.03;5066967;28;20449;-74
2022/08/05 02:45:13;;;;;;;22.45;17.58;;;;;;;16.43;100.00;100403.66;5064121;28;20027;-74
2022/08/05 02:47:39;;;;;;;19.95;17.08;;;;;;;16.68;100.00;100438.06;5071677;28;20032;-74
2022/08/05 02:50:06;;;;;;;23.23;20.52;;;;;;;16.82;100.00;100467.94;5066122;28;20036;-74
2022/08/05 02:52:32;;;;;;;22.45;17.40;;;;;;;16.69;100.00;100443.28;5064358;28;20544;-74
2022/08/05 02:55:01;;;;;;;22.52;18.40;;;;;;;16.85;100.00;100466.84;5063863;28;20029;-73
2022/08/05 02:57:26;;;;;;;23.48;19.17;;;;;;;16.90;100.00;100463.84;5062371;28;20094;-73
2022/08/05 02:59:53;;;;;;;21.23;19.02;;;;;;;16.76;100.00;100443.66;5071359;28;20056;-73
2022/08/05 03:02:23;;;;;;;27.10;17.27;;;;;;;16.58;100.00;100407.88;5060562;28;20059;-74
2022/08/05 03:04:53;;;;;;;23.35;19.55;;;;;;;16.83;100.00;100447.56;5059765;28;20037;-74
2022/08/05 03:07:20;;;;;;;18.83;16.90;;;;;;;16.90;100.00;100455.91;5059655;28;20109;-74
2022/08/05 03:09:45;;;;;;;22.25;18.35;;;;;;;16.93;100.00;100448.56;5071474;28;20078;-74
2022/08/05 03:12:34;;;;;;;25.60;20.67;;;;;;;16.85;100.00;100435.00;5069314;28;20020;-74
2022/08/05 03:15:00;;;;;;;25.45;19.88;;;;;;;16.60;100.00;100397.97;5066612;28;20039;-73
2022/08/05 03:17:26;;;;;;;23.48;18.95;;;;;;;16.91;100.00;100455.75;5068498;28;20021;-73
2022/08/05 03:19:51;;;;;;;22.08;18.67;;;;;;;16.95;100.00;100451.91;5065108;28;20035;-74
2022/08/05 03:22:17;;;;;;;32.25;20.83;;;;;;;16.85;100.00;100413.75;5056129;28;20026;-73
2022/08/05 03:24:47;;;;;;;24.92;20.23;;;;;;;16.95;100.00;100425.38;5052562;28;20025;-74
2022/08/05 03:27:13;;;;;;;29.95;21.95;;;;;;;16.85;100.00;100413.75;5054379;28;20105;-74
2022/08/05 03:29:39;;;;;;;22.80;19.95;;;;;;;16.88;100.00;100418.84;5068189;28;20062;-73
2022/08/05 03:32:06;;;;;;;24.60;19.38;;;;;;;17.02;100.00;100426.59;5072506;28;20037;-73
2022/08/05 03:34:31;;;;;;;25.92;20.15;;;;;;;17.02;100.00;100426.59;5082368;28;20035;-74
2022/08/05 03:36:57;;;;;;;22.85;20.30;;;;;;;17.02;100.00;100426.59;5083177;28;20040;-74
2022/08/05 03:39:22;;;;;;;27.98;23.67;;;;;;;16.91;100.00;100415.94;5086750;28;20028;-74
2022/08/05 03:41:48;;;;;;;28.92;21.27;;;;;;;16.95;100.00;100416.56;5071940;28;20082;-73
2022/08/05 03:44:13;;;;;;;24.63;20.17;;;;;;;17.01;100.00;100413.44;5069112;28;20107;-73
2022/08/05 03:46:38;;;;;;;26.27;23.08;;;;;;;16.87;100.00;100369.34;5067298;28;20032;-74
2022/08/05 03:49:04;;;;;;;23.63;21.30;;;;;;;16.87;100.00;100358.75;5067474;28;20039;-73
2022/08/05 03:51:33;;;;;;;28.13;23.08;;;;;;;17.06;100.00;100384.72;5061664;28;20023;-73
2022/08/05 03:54:07;;;;;;;21.92;19.08;;;;;;;17.10;100.00;100392.31;5068920;28;20033;-72
2022/08/05 03:56:40;;;;;;;27.67;24.23;;;;;;;17.01;100.00;100366.50;5054188;28;20048;-73
2022/08/05 03:59:07;;;;;;;30.33;23.27;;;;;;;17.11;100.00;100380.75;5063568;28;20092;-73
2022/08/05 04:01:35;;;;;;;26.42;22.77;;;;;;;17.18;100.00;100365.19;5058470;28;20036;-72
2022/08/05 04:04:02;;;;;;;25.50;20.98;;;;;;;17.25;100.00;100377.88;5068664;28;20033;-73
2022/08/05 04:06:28;;;;;;;28.80;23.33;;;;;;;17.23;100.00;100377.16;5071440;28;20496;-73
2022/08/05 04:08:53;;;;;;;29.05;25.95;;;;;;;17.20;100.00;100380.03;5076611;28;20075;-72
2022/08/05 04:11:19;;;;;;;29.33;22.88;;;;;;;17.16;100.00;100381.25;5073038;28;20032;-72
2022/08/05 04:13:44;;;;;;;31.40;28.13;;;;;;;17.19;100.00;100402.25;5069701;28;20030;-72
2022/08/05 04:16:12;;;;;;;46.97;28.25;;;;;;;17.17;100.00;100398.00;5070408;28;20071;-73
2022/08/05 04:18:37;;;;;;;30.27;27.30;;;;;;;17.09;100.00;100380.03;5066724;28;20029;-72
2022/08/05 04:21:04;;;;;;;25.42;22.98;;;;;;;17.07;100.00;100366.00;5054790;28;20440;-72
2022/08/05 04:23:30;;;;;;;29.48;26.30;;;;;;;17.21;100.00;100394.16;5069547;28;20475;-73
2022/08/05 04:25:56;;;;;;;34.47;27.50;;;;;;;17.14;100.00;100393.78;5053184;28;20040;-72
2022/08/05 04:28:21;;;;;;;35.45;25.40;;;;;;;17.18;100.00;100394.41;5065938;28;20024;-72
2022/08/05 04:30:47;;;;;;;34.40;29.20;;;;;;;17.27;100.00;100410.47;5060221;28;20029;-72
2022/08/05 04:33:14;;;;;;;34.28;30.30;;;;;;;17.20;100.00;100414.56;5074826;28;20035;-73
2022/08/05 04:35:40;;;;;;;36.97;33.03;;;;;;;17.17;100.00;100413.94;5089225;28;20435;-73
2022/08/05 04:38:05;;;;;;;31.10;26.60;;;;;;;17.17;100.00;100425.41;5068789;28;20107;-73
2022/08/05 04:40:35;;;;;;;34.50;31.05;;;;;;;17.08;100.00;100419.97;5067564;28;20495;-73
2022/08/05 04:43:00;;;;;;;44.58;32.22;;;;;;;17.15;100.00;100430.00;5055782;28;20031;-73
2022/08/05 04:45:26;;;;;;;49.60;36.63;;;;;;;17.12;100.00;100427.59;5056957;28;20025;-74
2022/08/05 04:47:51;;;;;;;37.67;33.67;;;;;;;17.18;100.00;100437.75;5059249;28;20032;-75
2022/08/05 04:50:18;;;;;;;52.03;40.45;;;;;;;17.08;100.00;100426.13;5055268;28;20032;-74
2022/08/05 04:52:44;;;;;;;44.63;37.78;;;;;;;17.13;100.00;100429.28;5069226;28;20029;-73
2022/08/05 04:55:09;;;;;;;41.45;36.85;;;;;;;17.05;100.00;100413.09;5055703;28;20033;-73
2022/08/05 04:57:34;;;;;;;40.70;36.33;;;;;;;17.13;100.00;100429.28;5062566;28;20471;-75
2022/08/05 05:00:00;;;;;;;39.20;33.85;;;;;;;17.05;100.00;100423.72;5072737;28;20098;-74
2022/08/05 05:02:25;;;;;;;39.58;35.78;;;;;;;17.03;100.00;100428.31;5071789;28;20031;-74
2022/08/05 05:04:51;;;;;;;38.40;33.47;;;;;;;17.08;100.00;100415.50;5088089;28;20060;-73
2022/08/05 05:07:17;;;;;;;52.90;34.80;;;;;;;17.12;100.00;100435.56;5070549;28;20033;-74
2022/08/05 05:09:42;;;;;;;50.35;36.30;;;;;;;17.07;100.00;100435.03;5057011;28;20021;-74
2022/08/05 05:12:07;;;;;;;37.63;33.80;;;;;;;16.99;100.00;100418.88;5073775;28;20133;-75
2022/08/05 05:14:33;;;;;;;39.10;34.17;;;;;;;17.01;100.00;100430.22;5076097;28;20045;-75
2022/08/05 05:16:59;;;;;;;32.13;27.30;;;;;;;16.96;100.00;100427.06;5062525;28;20413;-74
2022/08/05 05:19:24;;;;;;;34.42;30.63;;;;;;;16.86;100.00;100410.16;5074690;28;20051;-75
2022/08/05 05:21:50;;;;;;;32.22;28.90;;;;;;;17.03;100.00;100441.59;5059761;28;20036;-73
2022/08/05 05:24:15;;;;;;;29.70;26.63;;;;;;;17.01;100.00;100450.59;5102932;27;20024;-74
2022/08/05 05:26:41;;;;;;;30.20;26.52;;;;;;;17.00;100.00;100436.47;5074679;28;20036;-74
2022/08/05 05:29:06;;;;;;;30.95;27.70;;;;;;;16.93;100.00;100431.78;5090253;28;20040;-73
2022/08/05 05:31:31;;;;;;;29.35;24.73;;;;;;;16.92;100.00;100441.53;5077991;28;20029;-73
2022/08/05 05:33:57;;;;;;;27.13;23.77;;;;;;;16.90;100.00;100432.00;5057316;28;20067;-74
2022/08/05 05:36:23;;;;;;;25.15;22.77;;;;;;;16.90;100.00;100416.91;5063407;28;20056;-73
2022/08/05 05:38:48;;;;;;;26.10;22.02;;;;;;;17.02;100.00;100439.88;5061188;28;20111;-73
2022/08/05 05:41:13;;;;;;;38.83;23.75;;;;;;;16.88;100.00;100418.84;5069573;28;20032;-75
2022/08/05 05:43:39;;;;;;;25.08;22.48;;;;;;;16.84;100.00;100438.59;5071307;28;20066;-74
2022/08/05 05:46:04;;;;;;;24.88;21.15;;;;;;;16.76;100.00;100456.94;5076626;28;20047;-75
2022/08/05 05:48:30;;;;;;;22.95;20.52;;;;;;;16.71;100.00;100451.09;5067916;28;20021;-75
2022/08/05 05:50:55;;;;;;;21.33;18.52;;;;;;;16.75;100.00;100463.19;5063779;28;20082;-73
2022/08/05 05:53:20;;;;;;;19.02;17.08;;;;;;;16.76;100.00;100467.56;5069888;28;20531;-73
2022/08/05 05:55:46;;;;;;;22.67;17.20;;;;;;;16.64;100.00;100452.53;5063843;28;20086;-74
2022/08/05 05:58:11;;;;;;;21.17;18.98;;;;;;;16.77;100.00;100475.38;5063933;28;20028;-75
2022/08/05 06:00:36;;;;;;;25.75;18.00;;;;;;;16.80;100.00;100469.84;5081143;28;20474;-76
2022/08/05 06:03:02;;;;;;;24.67;18.00;;;;;;;16.82;100.00;100475.03;5056285;28;20032;-74
2022/08/05 06:05:28;;;;;;;18.23;15.85;;;;;;;16.77;100.00;100470.06;5060474;28;20033;-73
2022/08/05 06:07:53;;;;;;;23.90;16.45;;;;;;;16.63;100.00;100469.38;5065333;28;20038;-74
2022/08/05 06:10:18;;;;;;;18.27;16.33;;;;;;;16.44;100.00;100447.81;5072901;28;20152;-73
2022/08/05 06:12:44;;;;;;;20.80;16.65;;;;;;;16.58;100.00;100487.47;5080346;28;20032;-74
2022/08/05 06:15:09;;;;;;;18.90;13.60;;;;;;;16.47;100.00;100476.75;5063574;28;20024;-73
2022/08/05 06:17:35;;;;;;;16.80;12.80;;;;;;;16.50;100.00;100497.75;5068645;28;20542;-72
2022/08/05 06:20:01;;;;;;;17.58;12.52;;;;;;;16.47;100.00;100501.47;5074423;28;20115;-73
2022/08/05 06:22:31;;;;;;;16.52;14.07;;;;;;;16.29;100.00;100487.75;5081643;28;20031;-73
2022/08/05 06:24:57;;;;;;;16.23;12.85;;;;;;;16.40;100.00;100524.09;5083984;28;20116;-73
2022/08/05 06:27:23;;;;;;;18.85;13.82;;;;;;;16.35;100.00;100531.56;5061072;28;20117;-74
2022/08/05 06:29:48;;;;;;;19.45;12.20;;;;;;;16.38;100.00;100535.78;5082395;28;20103;-72
2022/08/05 06:32:13;;;;;;;13.80;10.88;;;;;;;16.26;100.00;100533.06;5058807;28;20021;-71
2022/08/05 06:34:39;;;;;;;15.05;11.35;;;;;;;16.23;100.00;100543.88;5077489;28;20132;-72
2022/08/05 06:37:05;;;;;;;16.00;11.98;;;;;;;16.25;100.00;100549.94;5082572;28;20462;-73
2022/08/05 06:39:30;;;;;;;13.07;9.88;;;;;;;16.08;100.00;100523.78;5068931;28;20070;-72
2022/08/05 06:41:57;;;;;;;17.42;10.10;;;;;;;16.23;100.00;100549.19;5074856;28;20156;-73
2022/08/05 06:44:22;;;;;;;19.25;10.90;;;;;;;16.15;100.00;100540.94;5075834;28;20449;-73
2022/08/05 06:46:48;;;;;;;14.05;9.93;;;;;;;16.10;100.00;100543.06;5071481;28;20028;-74
2022/08/05 06:49:13;;;;;;;13.93;9.48;;;;;;;16.10;100.00;100552.81;5072531;28;20416;-73
2022/08/05 06:51:38;;;;;;;13.07;9.90;;;;;;;15.98;100.00;100538.63;5062326;28;20067;-73
2022/08/05 06:54:04;;;;;;;13.75;9.40;;;;;;;16.03;100.00;100547.09;5060795;28;20024;-73
2022/08/05 06:56:31;;;;;;;15.88;10.68;;;;;;;16.01;100.00;100541.06;5072617;28;20032;-73
2022/08/05 06:58:56;;;;;;;14.45;10.48;;;;;;;16.07;100.00;100553.88;5072409;28;20033;-73
2022/08/05 07:01:22;;;;;;;14.98;10.70;;;;;;;15.96;100.00;100540.53;5080209;28;20038;-73
2022/08/05 07:03:47;;;;;;;14.85;9.88;;;;;;;16.04;100.00;100548.81;5081977;28;20054;-74
2022/08/05 07:06:13;;;;;;;18.33;9.95;;;;;;;15.86;100.00;100528.88;5080536;28;20036;-73
2022/08/05 07:08:38;;;;;;;16.73;10.85;;;;;;;16.08;100.00;100571.50;5067568;28;20021;-73
2022/08/05 07:11:04;;;;;;;11.65;9.23;;;;;;;15.95;100.00;100551.25;5065267;28;20075;-73
2022/08/05 07:19:00;;;;;;;16.70;8.77;;;;;;;16.18;100.00;100579.66;5051121;28;20075;-72
2022/08/05 07:21:26;;;;;;;12.52;8.15;;;;;;;16.03;100.00;100563.00;5070679;28;20281;-73
2022/08/05 07:23:51;;;;;;;11.68;8.48;;;;;;;16.14;100.00;100573.72;5072819;28;20088;-73
2022/08/05 07:26:17;;;;;;;13.90;9.05;;;;;;;15.70;100.00;100496.47;5073751;28;20064;-73
2022/08/05 07:28:42;;;;;;;15.50;9.93;;;;;;;16.41;100.00;100607.19;5077253;28;20059;-74
2022/08/05 07:31:07;;;;;;;9.38;8.05;;;;;;;16.08;100.00;100565.34;5076131;28;20048;-73
2022/08/05 07:33:33;;;;;;;16.08;9.35;;;;;;;16.36;100.00;100611.00;5068958;28;20028;-73
2022/08/05 07:35:58;;;;;;;13.13;8.60;;;;;;;16.44;100.00;100618.44;5059924;28;20550;-73
2022/08/05 07:38:24;;;;;;;11.30;8.50;;;;;;;16.53;100.00;100624.88;5068604;28;20028;-73
2022/08/05 07:40:50;;;;;;;9.82;8.38;;;;;;;16.50;100.00;100614.47;5065529;28;20028;-75
2022/08/05 07:43:15;;;;;;;11.60;7.68;;;;;;;16.63;100.00;100613.53;5084164;28;20074;-75
2022/08/05 07:45:44;;;;;;;11.48;7.80;;;;;;;16.80;100.00;100626.44;5066457;28;20103;-73
2022/08/05 07:48:10;;;;;;;18.88;9.15;;;;;;;16.59;100.00;100592.66;5058418;28;20032;-73
2022/08/05 07:50:35;;;;;;;10.98;8.05;;;;;;;16.73;100.00;100619.00;5055510;28;20368;-73
2022/08/05 07:53:01;;;;;;;13.88;8.32;;;;;;;16.91;100.00;100646.91;5071086;28;20036;-73
2022/08/05 07:55:26;;;;;;;10.23;7.65;;;;;;;16.14;100.00;100522.47;5062948;28;20068;-73
2022/08/05 07:57:51;;;;;;;11.55;7.30;;;;;;;16.63;100.00;100615.31;5068950;28;20025;-73
2022/08/05 08:00:17;;;;;;;9.05;7.03;;;;;;;16.75;100.00;100633.03;5058180;28;20447;-73
2022/08/05 08:02:43;;;;;;;11.70;7.78;;;;;;;16.72;100.00;100618.19;5072725;28;20023;-73
2022/08/05 08:05:09;;;;;;;11.25;8.13;;;;;;;17.11;100.00;100661.38;5087013;28;20035;-73
2022/08/05 08:07:34;;;;;;;12.02;8.40;;;;;;;17.19;100.00;100654.56;5055169;28;20037;-72
2022/08/05 08:09:59;;;;;;;14.00;8.38;;;;;;;17.31;100.00;100644.81;5068192;28;20025;-73
2022/08/05 08:12:25;;;;;;;15.07;7.80;;;;;;;17.20;100.00;100653.56;5056168;28;20499;-74
2022/08/05 08:14:51;;;;;;;11.05;6.93;;;;;;;17.20;100.00;100653.56;5056991;28;20383;-73
2022/08/05 08:17:16;;;;;;;8.77;6.43;;;;;;;17.31;100.00;100664.25;5051762;28;20457;-74
2022/08/05 08:19:44;;;;;;;11.65;7.65;;;;;;;17.32;100.00;100657.16;5063160;28;20025;-73
2022/08/05 08:22:09;;;;;;;11.88;6.97;;;;;;;17.30;100.00;100653.78;5064254;28;20193;-72
2022/08/05 08:24:35;;;;;;;10.05;6.07;;;;;;;17.32;100.00;100641.22;5062435;28;20116;-72
2022/08/05 08:27:01;;;;;;;8.52;6.43;;;;;;;17.56;100.00;100659.81;5063172;28;20118;-73
2022/08/05 08:29:26;;;;;;;11.90;6.68;;;;;;;17.53;100.00;100649.41;5063766;28;20696;-73
2022/08/05 08:31:52;;;;;;;8.63;6.60;;;;;;;17.54;100.00;100646.59;5061211;28;20072;-73
2022/08/05 08:34:19;;;;;;;13.88;6.70;;;;;;;17.80;100.00;100673.94;5056780;28;20117;-73
2022/08/05 08:36:44;;;;;;;9.40;6.57;;;;;;;17.85;100.00;100661.97;5050033;28;20481;-73
2022/08/05 08:39:09;;;;;;;10.57;6.75;;;;;;;17.76;100.00;100648.53;5056701;28;20036;-73
2022/08/05 08:41:36;;;;;;;11.57;7.10;;;;;;;17.87;100.00;100677.81;5058842;28;20094;-73
2022/08/05 08:44:02;;;;;;;12.07;7.90;;;;;;;18.03;100.00;100685.47;5070703;28;20032;-73
2022/08/05 08:46:30;;;;;;;12.75;8.30;;;;;;;18.09;100.00;100685.84;5078332;28;20770;-73
2022/08/05 08:48:56;;;;;;;11.85;8.88;;;;;;;18.27;100.00;100676.47;5053212;28;20029;-73
2022/08/05 08:51:23;;;;;;;11.82;8.18;;;;;;;18.62;100.00;100694.19;5069740;28;20029;-74
2022/08/05 08:53:48;;;;;;;11.40;7.85;;;;;;;18.47;100.00;100669.56;5066021;28;20137;-73
2022/08/05 08:56:14;;;;;;;15.50;8.05;;;;;;;18.51;100.00;100672.88;5054110;28;20021;-73
2022/08/05 08:58:40;;;;;;;15.35;8.10;;;;;;;18.65;100.00;100708.09;5064304;28;20039;-73
2022/08/05 09:01:06;;;;;;;12.95;7.75;;;;;;;18.62;100.00;100710.16;5037568;28;20029;-73
2022/08/05 09:03:32;;;;;;;12.75;8.65;;;;;;;18.65;100.00;100699.25;5053218;28;20395;-73
2022/08/05 09:05:57;;;;;;;11.77;9.02;;;;;;;18.68;100.00;100709.66;5048290;28;20035;-73
2022/08/05 09:08:22;;;;;;;18.40;7.75;;;;;;;18.62;100.00;100705.66;5086660;28;20050;-73
2022/08/05 09:10:50;;;;;;;11.23;7.72;;;;;;;18.63;100.00;100727.78;5073280;28;20522;-74
2022/08/05 09:13:15;;;;;;;19.92;8.50;;;;;;;18.81;100.00;100737.88;5058893;28;20136;-73
2022/08/05 09:15:41;;;;;;;15.77;8.32;;;;;;;18.66;100.00;100719.56;5054922;28;20149;-74
2022/08/05 09:18:08;;;;;;;11.63;8.77;;;;;;;18.70;100.00;100740.50;5058866;28;20624;-75
2022/08/05 09:20:33;;;;;;;15.80;10.48;;;;;;;18.50;100.00;100684.44;5058196;28;20106;-75
2022/08/05 09:23:06;;;;;;;15.93;10.23;;;;;;;18.85;100.00;100714.50;5068928;28;20670;-75
2022/08/05 09:25:32;;;;;;;13.68;9.13;;;;;;;19.04;100.00;100740.50;5058730;28;20025;-75
2022/08/05 09:28:08;;;;;;;18.20;9.35;;;;;;;19.02;100.00;100724.66;5086833;28;20098;-74
2022/08/05 09:30:34;;;;;;;11.07;8.18;;;;;;;19.41;100.00;100741.09;5056960;28;20037;-74
2022/08/05 09:33:03;;;;;;;33.88;9.77;;;;;;;19.56;100.00;100737.19;5070823;28;20051;-74
2022/08/05 09:35:28;;;;;;;11.73;8.85;;;;;;;19.73;100.00;100739.31;5055399;28;20033;-74
2022/08/05 09:37:55;;;;;;;11.48;8.48;;;;;;;19.77;100.00;100752.25;5060320;28;20032;-74
2022/08/05 09:40:41;;;;;;;9.77;7.07;;;;;;;19.46;100.00;100742.44;5057063;28;20029;-74
2022/08/05 09:43:09;;;;;;;9.55;7.47;;;;;;;19.49;100.00;100760.81;5064438;28;20471;-75
2022/08/05 09:45:41;;;;;;;12.82;7.65;;;;;;;19.48;100.00;100758.28;5055910;28;21305;-74
2022/08/05 09:48:20;;;;;;;12.82;7.35;;;;;;;19.58;100.00;100751.22;5062387;28;20031;-74
2022/08/05 09:50:50;;;;;;;10.20;7.30;;;;;;;19.55;100.00;100743.47;5072328;28;20476;-73
2022/08/05 09:53:16;;;;;;;16.08;8.02;;;;;;;19.52;100.00;100743.72;5061918;28;20090;-73
2022/08/05 09:55:42;;;;;;;14.90;8.52;;;;;;;19.59;100.00;100753.78;5068377;28;20451;-73
2022/08/05 09:58:12;;;;;;;10.18;7.85;;;;;;;19.75;100.00;100762.19;5061974;28;20083;-73
2022/08/05 10:00:37;;;;;;;8.65;7.05;;;;;;;19.78;100.00;100751.28;5076635;28;20063;-73
2022/08/05 10:03:09;;;;;;;13.85;8.50;;;;;;;19.99;100.00;100761.97;5063819;28;20387;-72
2022/08/05 10:05:36;;;;;;;12.73;7.85;;;;;;;20.02;100.00;100764.41;5122457;27;20027;-72
2022/08/05 10:08:04;;;;;;;11.35;7.18;;;;;;;20.00;100.00;100765.50;5064277;28;20088;-72
2022/08/05 10:10:47;;;;;;;10.38;7.57;;;;;;;19.94;100.00;100772.19;5072193;28;20423;-72
2022/08/05 10:13:25;;;;;;;9.63;7.40;;;;;;;19.28;100.00;100656.78;5059194;28;20424;-72
2022/08/05 10:15:50;;;;;;;12.80;7.95;;;;;;;20.11;100.00;100770.81;5053023;28;20025;-71
2022/08/05 10:18:21;;;;;;;13.95;8.32;;;;;;;20.32;100.00;100763.66;5058759;28;20114;-72
2022/08/05 10:20:53;;;;;;;15.32;8.57;;;;;;;20.65;100.00;100781.31;5066991;28;20119;-72
2022/08/05 10:23:21;;;;;;;13.65;7.93;;;;;;;20.69;100.00;100772.03;5081605;28;20501;-72
2022/08/05 10:25:47;;;;;;;12.60;8.57;;;;;;;20.80;100.00;100766.63;5091276;27;20028;-72
2022/08/05 10:28:12;;;;;;;13.90;7.85;;;;;;;20.87;100.00;100770.47;5077461;28;20103;-72
2022/08/05 10:30:38;;;;;;;14.45;8.07;;;;;;;20.80;100.00;100777.31;5069556;28;20455;-72
2022/08/05 10:33:04;;;;;;;16.08;10.00;;;;;;;20.69;100.00;100788.06;5078178;28;20028;-72
2022/08/05 10:35:31;;;;;;;10.90;6.57;;;;;;;20.46;100.00;100746.47;5053583;28;20041;-73
2022/08/05 10:37:59;;;;;;;11.52;8.07;;;;;;;20.69;100.00;100777.38;5065103;28;20020;-71
2022/08/05 10:40:31;;;;;;;16.25;8.57;;;;;;;20.59;100.00;100779.16;5052217;28;20032;-72
2022/08/05 10:43:06;;;;;;;10.82;7.15;;;;;;;20.25;100.00;100768.63;5044655;28;20032;-72
2022/08/05 10:45:32;;;;;;;14.65;7.55;;;;;;;20.13;100.00;100791.03;5061349;28;20024;-71
2022/08/05 10:47:57;;;;;;;10.43;6.93;;;;;;;19.73;100.00;100773.97;5090278;28;20029;-71
2022/08/05 10:50:23;;;;;;;12.85;7.22;;;;;;;19.56;100.00;100788.69;5071134;28;20037;-71
2022/08/05 10:52:56;;;;;;;14.65;7.32;;;;;;;19.49;100.00;100778.63;5066799;28;20029;-71
2022/08/05 10:55:22;;;;;;;8.95;6.35;;;;;;;19.64;100.00;100758.72;5063538;28;20497;-71
2022/08/05 10:57:47;;;;;;;12.27;8.05;;;;;;;20.18;100.00;100791.47;5062332;28;20035;-71
2022/08/05 11:00:20;;;;;;;16.20;6.68;;;;;;;20.44;100.00;100783.16;5058141;28;20386;-71
2022/08/05 11:03:09;;;;;;;10.25;5.75;;;;;;;20.89;100.00;100792.53;5072142;28;20032;-71
2022/08/05 11:05:35;;;;;;;10.68;6.65;;;;;;;20.85;100.00;100748.38;5063352;28;20040;-71
2022/08/05 11:08:03;;;;;;;11.27;6.47;;;;;;;21.21;100.00;100782.59;5065271;28;20032;-71
2022/08/05 11:10:29;;;;;;;9.73;6.60;;;;;;;20.87;100.00;100757.09;5067007;28;20078;-72